Time;durP1;ratioP1;P1;durP2;ratioP2;P2;SDS_P1;SDS_P2;PMS_P1;PMS_P2;Temp;Humidity;BMP_temperature;BMP_pressure;BME280_temperature;BME280_humidity;BME280_pressure;Samples;Min_cycle;Max_cycle;Signal;HPM_P1;HPM_P2
2021/08/19 00:01:38;;;;;;;5.80;4.10;;;22.20;69.10;;;;;;5054110;28;20487;-61
2021/08/19 00:04:04;;;;;;;6.13;4.38;;;22.20;69.10;;;;;;5054034;28;20490;-62
2021/08/19 00:06:30;;;;;;;6.53;4.40;;;22.20;69.10;;;;;;5054111;28;20032;-61
2021/08/19 00:08:55;;;;;;;5.88;4.25;;;22.20;69.20;;;;;;5054089;28;20029;-59
2021/08/19 00:11:21;;;;;;;5.88;4.00;;;22.20;69.00;;;;;;5054149;28;20472;-67
2021/08/19 00:13:47;;;;;;;6.53;4.45;;;22.10;69.00;;;;;;5053737;28;20036;-62
2021/08/19 00:16:13;;;;;;;6.78;4.40;;;22.10;69.10;;;;;;5050433;28;20036;-63
2021/08/19 00:18:39;;;;;;;6.20;4.30;;;22.10;69.20;;;;;;5052557;28;20029;-62
2021/08/19 00:21:06;;;;;;;6.25;4.53;;;22.10;69.40;;;;;;5054037;28;20468;-66
2021/08/19 00:23:32;;;;;;;5.90;4.07;;;22.10;69.20;;;;;;5053547;28;20029;-65
2021/08/19 00:25:58;;;;;;;5.70;4.00;;;22.10;69.20;;;;;;5053812;28;20036;-60
2021/08/19 00:28:23;;;;;;;5.40;3.95;;;22.10;69.20;;;;;;5053646;28;20029;-61
2021/08/19 00:30:49;;;;;;;6.57;4.30;;;22.20;69.10;;;;;;5053984;28;20392;-61
2021/08/19 00:33:15;;;;;;;6.78;4.70;;;22.10;69.20;;;;;;5072353;28;20792;-59
2021/08/19 00:35:40;;;;;;;6.57;4.38;;;22.10;69.10;;;;;;5073365;28;20090;-69
2021/08/19 00:38:06;;;;;;;6.28;4.50;;;22.10;69.10;;;;;;5073511;28;20027;-69
2021/08/19 00:40:33;;;;;;;7.28;4.60;;;22.20;69.10;;;;;;5073544;28;20047;-61
2021/08/19 00:43:01;;;;;;;6.75;4.05;;;22.20;69.10;;;;;;5073182;28;20013;-60
2021/08/19 00:45:29;;;;;;;6.15;4.28;;;22.20;68.90;;;;;;5073377;28;20032;-59
2021/08/19 00:47:54;;;;;;;6.60;4.13;;;22.20;68.80;;;;;;5072175;28;20021;-59
2021/08/19 00:50:20;;;;;;;6.00;4.45;;;22.10;68.70;;;;;;5073290;28;20048;-59
2021/08/19 00:52:46;;;;;;;6.82;4.60;;;22.10;68.60;;;;;;5073322;28;20033;-69
2021/08/19 00:55:16;;;;;;;6.53;4.30;;;22.10;68.60;;;;;;5073159;28;20029;-67
2021/08/19 00:57:42;;;;;;;5.78;4.28;;;22.10;68.60;;;;;;5073444;28;20030;-69
2021/08/19 01:00:09;;;;;;;6.57;4.40;;;22.10;68.50;;;;;;5073442;28;20020;-68
2021/08/19 01:02:37;;;;;;;6.47;4.55;;;22.10;68.50;;;;;;5073354;28;20494;-65
2021/08/19 01:05:05;;;;;;;5.68;4.10;;;22.10;68.20;;;;;;5073013;28;20056;-64
2021/08/19 01:07:31;;;;;;;6.30;4.32;;;22.20;68.10;;;;;;5072967;28;20490;-64
2021/08/19 01:09:58;;;;;;;5.68;4.05;;;22.10;67.90;;;;;;5071741;28;20040;-65
2021/08/19 01:12:24;;;;;;;6.40;4.18;;;22.00;67.90;;;;;;5071844;28;20032;-64
2021/08/19 01:14:50;;;;;;;5.60;3.70;;;22.00;68.00;;;;;;5072597;28;20425;-62
2021/08/19 01:17:17;;;;;;;6.20;4.22;;;21.90;68.00;;;;;;5071528;28;20028;-61
2021/08/19 01:19:46;;;;;;;6.97;4.25;;;21.90;67.90;;;;;;5059624;28;20037;-61
2021/08/19 01:22:12;;;;;;;5.38;3.80;;;21.90;67.80;;;;;;5072716;28;20017;-61
2021/08/19 01:24:37;;;;;;;5.78;3.78;;;21.80;67.60;;;;;;5072999;28;20031;-61
2021/08/19 01:27:04;;;;;;;5.63;3.70;;;21.80;67.60;;;;;;5063214;28;20032;-63
2021/08/19 01:29:30;;;;;;;5.78;3.95;;;21.80;67.50;;;;;;5052522;28;20108;-61
2021/08/19 01:32:02;;;;;;;5.63;3.75;;;21.70;67.50;;;;;;5052449;28;20104;-61
2021/08/19 01:34:28;;;;;;;5.80;3.67;;;21.70;67.50;;;;;;5052322;28;20365;-60
2021/08/19 01:36:54;;;;;;;5.95;3.63;;;21.80;67.30;;;;;;5052289;28;20029;-62
2021/08/19 01:39:20;;;;;;;5.88;3.90;;;21.80;67.00;;;;;;5052813;28;20033;-63
2021/08/19 01:41:46;;;;;;;6.10;3.80;;;21.80;66.80;;;;;;5052360;28;20025;-62
2021/08/19 01:44:12;;;;;;;6.32;3.88;;;21.70;66.50;;;;;;5052338;28;20020;-61
2021/08/19 01:46:38;;;;;;;5.90;3.67;;;21.60;66.60;;;;;;5052292;28;20078;-61
2021/08/19 01:49:03;;;;;;;5.40;3.20;;;21.40;66.90;;;;;;5052228;28;20029;-67
2021/08/19 01:51:29;;;;;;;5.38;3.30;;;21.30;67.30;;;;;;5050593;28;20080;-59
2021/08/19 01:53:55;;;;;;;5.15;3.40;;;21.10;67.70;;;;;;5052017;28;20060;-60
2021/08/19 01:56:24;;;;;;;6.18;3.80;;;21.00;68.10;;;;;;5051950;28;20399;-61
2021/08/19 01:58:56;;;;;;;5.43;3.40;;;20.90;68.50;;;;;;5051923;28;20025;-60
2021/08/19 02:01:24;;;;;;;5.88;3.70;;;20.70;68.70;;;;;;5052023;28;20025;-60
2021/08/19 02:03:51;;;;;;;5.90;3.80;;;20.70;69.20;;;;;;5051785;28;20498;-60
2021/08/19 02:06:17;;;;;;;5.90;3.70;;;20.60;69.50;;;;;;5052073;28;20039;-60
2021/08/19 02:08:43;;;;;;;6.00;3.40;;;20.50;69.80;;;;;;5051905;28;20033;-61
2021/08/19 02:11:09;;;;;;;5.45;3.28;;;20.40;70.10;;;;;;5052152;28;20085;-60
2021/08/19 02:13:36;;;;;;;6.32;3.70;;;20.40;70.50;;;;;;5051559;28;20025;-60
2021/08/19 02:16:02;;;;;;;5.60;3.58;;;20.30;70.70;;;;;;5051853;28;20055;-61
2021/08/19 02:18:27;;;;;;;5.88;3.60;;;20.30;70.90;;;;;;5051677;28;20032;-61
2021/08/19 02:20:53;;;;;;;5.80;3.90;;;20.30;71.20;;;;;;5050431;28;20020;-60
2021/08/19 02:23:19;;;;;;;5.13;3.42;;;20.20;71.50;;;;;;5051533;28;20025;-60
2021/08/19 02:25:45;;;;;;;5.90;3.90;;;20.20;71.70;;;;;;5051831;28;20102;-67
2021/08/19 02:28:11;;;;;;;6.10;4.18;;;20.10;72.10;;;;;;5051648;28;20432;-64
2021/08/19 02:30:37;;;;;;;5.80;4.00;;;20.10;72.40;;;;;;5051771;28;20086;-63
2021/08/19 02:33:03;;;;;;;6.25;4.35;;;20.10;72.60;;;;;;5051434;28;20419;-63
2021/08/19 02:35:30;;;;;;;5.80;4.07;;;20.10;72.80;;;;;;5051371;28;20047;-63
2021/08/19 02:38:00;;;;;;;5.65;3.83;;;20.10;72.90;;;;;;5051613;28;20044;-63
2021/08/19 02:40:27;;;;;;;6.65;4.32;;;20.10;72.80;;;;;;5051561;28;20013;-65
2021/08/19 02:42:52;;;;;;;6.20;4.45;;;20.10;73.00;;;;;;5051354;28;20021;-65
2021/08/19 02:45:19;;;;;;;6.38;4.60;;;20.10;73.20;;;;;;5051566;28;20155;-62
2021/08/19 02:47:45;;;;;;;6.20;4.70;;;20.10;73.20;;;;;;5051430;28;20468;-69
2021/08/19 02:50:11;;;;;;;6.45;4.60;;;20.10;73.40;;;;;;5049993;28;20049;-69
2021/08/19 02:52:37;;;;;;;6.10;4.40;;;20.10;73.50;;;;;;5051844;28;20369;-76
2021/08/19 02:55:04;;;;;;;7.40;4.50;;;20.10;73.70;;;;;;5051175;28;20033;-65
2021/08/19 02:57:29;;;;;;;6.97;4.75;;;20.10;73.70;;;;;;5050172;28;20018;-62
2021/08/19 02:59:55;;;;;;;7.35;4.30;;;20.00;73.90;;;;;;5051429;28;20048;-63
2021/08/19 03:02:21;;;;;;;5.50;3.70;;;20.00;74.00;;;;;;5051472;28;20025;-63
2021/08/19 03:04:47;;;;;;;5.75;4.13;;;20.00;74.10;;;;;;5051321;28;20033;-68
2021/08/19 03:07:13;;;;;;;5.72;4.10;;;19.90;74.30;;;;;;5051168;28;20029;-73
2021/08/19 03:09:39;;;;;;;5.65;3.65;;;19.90;74.40;;;;;;5051248;28;20021;-67
2021/08/19 03:12:06;;;;;;;6.20;4.20;;;19.80;74.60;;;;;;5055046;28;20025;-63
2021/08/19 03:14:33;;;;;;;5.75;4.00;;;19.70;74.90;;;;;;5054987;28;20108;-65
2021/08/19 03:16:59;;;;;;;6.18;4.10;;;19.70;75.10;;;;;;5053807;28;20380;-65
2021/08/19 03:19:25;;;;;;;6.10;4.32;;;19.70;75.40;;;;;;5054922;28;20017;-65
2021/08/19 03:21:50;;;;;;;7.13;5.25;;;19.70;75.40;;;;;;5055049;28;20384;-76
2021/08/19 03:24:16;;;;;;;6.72;4.72;;;19.60;76.00;;;;;;5053869;28;20128;-68
2021/08/19 03:26:42;;;;;;;6.85;4.93;;;19.60;75.90;;;;;;5054751;28;20427;-68
2021/08/19 03:29:07;;;;;;;6.53;4.65;;;19.50;76.10;;;;;;5054948;28;20475;-69
2021/08/19 03:31:33;;;;;;;6.38;4.85;;;19.50;76.20;;;;;;5054662;28;20035;-68
2021/08/19 03:33:59;;;;;;;6.45;5.05;;;19.40;76.60;;;;;;5054741;28;20130;-68
2021/08/19 03:36:25;;;;;;;6.85;4.80;;;19.40;76.80;;;;;;5054743;28;20029;-69
2021/08/19 03:38:51;;;;;;;6.53;4.93;;;19.30;77.00;;;;;;5053298;28;20610;-69
2021/08/19 03:41:17;;;;;;;5.88;3.90;;;19.30;77.00;;;;;;5054708;28;20025;-68
2021/08/19 03:43:46;;;;;;;6.72;4.70;;;19.30;77.10;;;;;;5054566;28;20025;-68
2021/08/19 03:46:13;;;;;;;6.43;4.65;;;19.30;77.30;;;;;;5054615;28;20495;-68
2021/08/19 03:48:39;;;;;;;7.68;5.03;;;19.30;77.50;;;;;;5054497;28;20040;-69
2021/08/19 03:51:05;;;;;;;6.63;4.75;;;19.30;77.60;;;;;;5054321;28;20053;-69
2021/08/19 03:53:31;;;;;;;6.15;4.20;;;19.20;77.50;;;;;;5054300;28;20074;-69
2021/08/19 03:55:57;;;;;;;6.47;4.50;;;19.20;77.50;;;;;;5054342;28;20025;-69
2021/08/19 03:58:22;;;;;;;6.07;4.35;;;19.30;77.60;;;;;;5054335;28;20021;-69
2021/08/19 04:00:50;;;;;;;7.00;4.50;;;19.30;77.50;;;;;;5054560;28;20025;-69
2021/08/19 04:03:16;;;;;;;6.80;4.43;;;19.20;77.30;;;;;;5054151;28;20021;-68
2021/08/19 04:05:42;;;;;;;6.25;4.05;;;19.20;77.40;;;;;;5054292;28;20033;-68
2021/08/19 04:08:08;;;;;;;6.25;4.22;;;19.20;77.30;;;;;;5054200;28;20033;-69
2021/08/19 04:10:34;;;;;;;6.22;4.18;;;19.20;77.30;;;;;;5054099;28;20025;-68
2021/08/19 04:13:00;;;;;;;5.65;4.20;;;19.20;77.30;;;;;;5053888;28;20531;-68
2021/08/19 04:15:25;;;;;;;6.30;4.40;;;19.20;77.10;;;;;;5053810;28;20037;-68
2021/08/19 04:17:52;;;;;;;5.95;4.13;;;19.10;77.80;;;;;;5053796;28;20056;-67
2021/08/19 04:20:19;;;;;;;7.03;4.90;;;19.20;77.20;;;;;;5059330;28;20015;-68
2021/08/19 04:22:45;;;;;;;6.28;4.38;;;19.10;77.20;;;;;;5060255;28;20472;-68
2021/08/19 04:25:12;;;;;;;6.32;4.65;;;19.10;77.20;;;;;;5052465;28;20029;-68
2021/08/19 04:27:38;;;;;;;6.32;4.32;;;19.10;77.10;;;;;;5053409;28;20120;-68
2021/08/19 04:30:05;;;;;;;6.35;4.40;;;19.10;77.10;;;;;;5053382;28;20104;-68
2021/08/19 04:32:31;;;;;;;5.97;4.20;;;19.10;77.10;;;;;;5051948;28;20399;-68
2021/08/19 04:34:57;;;;;;;6.00;4.10;;;19.10;77.10;;;;;;5053586;28;20028;-68
2021/08/19 04:37:22;;;;;;;6.93;4.40;;;19.10;77.10;;;;;;5053574;28;20025;-67
2021/08/19 04:39:48;;;;;;;6.85;4.38;;;19.10;77.00;;;;;;5053513;28;20017;-68
2021/08/19 04:42:14;;;;;;;6.47;4.05;;;19.10;77.00;;;;;;5053430;28;20021;-76
2021/08/19 04:44:40;;;;;;;5.60;3.95;;;19.10;76.90;;;;;;5053382;28;20067;-71
2021/08/19 04:47:06;;;;;;;5.95;3.90;;;19.10;76.80;;;;;;5053771;28;20043;-75
2021/08/19 04:49:31;;;;;;;5.47;3.60;;;19.10;76.70;;;;;;5051669;28;20029;-76
2021/08/19 04:51:57;;;;;;;5.20;3.55;;;19.20;76.60;;;;;;5053447;28;20086;-75
2021/08/19 04:54:23;;;;;;;5.65;3.65;;;19.20;76.60;;;;;;5053185;28;20033;-73
2021/08/19 04:56:49;;;;;;;6.15;4.05;;;19.30;76.50;;;;;;5053534;28;20438;-68
2021/08/19 04:59:15;;;;;;;5.57;3.72;;;19.30;76.40;;;;;;5053485;28;20751;-73
2021/08/19 05:01:40;;;;;;;5.10;3.20;;;19.40;76.10;;;;;;5053147;28;20150;-73
2021/08/19 05:04:06;;;;;;;5.47;3.20;;;19.40;76.00;;;;;;5053093;28;20025;-74
2021/08/19 05:06:32;;;;;;;5.78;3.60;;;19.50;75.80;;;;;;5052824;28;20029;-72
2021/08/19 05:08:59;;;;;;;5.97;3.75;;;19.50;75.50;;;;;;5052865;28;20029;-75
2021/08/19 05:11:25;;;;;;;5.97;3.38;;;19.60;75.40;;;;;;5052892;28;20415;-74
2021/08/19 05:13:52;;;;;;;6.28;3.60;;;19.60;75.30;;;;;;5051482;28;20465;-74
2021/08/19 05:16:18;;;;;;;5.18;3.20;;;19.70;75.10;;;;;;5052832;28;20025;-74
2021/08/19 05:18:44;;;;;;;5.20;3.20;;;19.80;74.90;;;;;;5051638;28;20032;-76
2021/08/19 05:21:11;;;;;;;6.22;3.78;;;19.80;74.60;;;;;;5052825;28;20025;-68
2021/08/19 05:23:37;;;;;;;5.28;3.30;;;19.80;74.40;;;;;;5051157;28;20419;-68
2021/08/19 05:26:02;;;;;;;4.97;3.15;;;19.80;74.30;;;;;;5052678;28;20083;-72
2021/08/19 05:28:28;;;;;;;6.00;3.20;;;19.80;74.10;;;;;;5052630;28;20096;-74
2021/08/19 05:30:54;;;;;;;5.55;3.33;;;19.80;74.10;;;;;;5052601;28;20392;-73
2021/08/19 05:33:19;;;;;;;5.95;3.45;;;19.80;74.10;;;;;;5051835;28;20060;-74
2021/08/19 05:35:45;;;;;;;5.57;3.40;;;19.80;74.10;;;;;;5052645;28;20482;-76
2021/08/19 05:38:12;;;;;;;5.18;3.40;;;19.80;74.10;;;;;;5052467;28;20036;-74
2021/08/19 05:40:38;;;;;;;5.55;3.30;;;19.80;74.10;;;;;;5062825;28;20031;-74
2021/08/19 05:43:05;;;;;;;5.65;3.58;;;19.80;73.90;;;;;;5070882;28;20024;-74
2021/08/19 05:45:31;;;;;;;6.20;3.50;;;19.90;73.90;;;;;;5072498;28;20412;-74
2021/08/19 05:47:57;;;;;;;5.53;3.65;;;19.90;73.80;;;;;;5072140;28;20066;-73
2021/08/19 05:50:23;;;;;;;5.57;3.25;;;19.90;73.70;;;;;;5070579;28;20522;-72
2021/08/19 05:52:48;;;;;;;5.00;3.25;;;19.90;73.60;;;;;;5072352;28;20025;-72
2021/08/19 05:55:14;;;;;;;4.57;2.90;;;19.90;73.50;;;;;;5071994;28;20098;-65
2021/08/19 05:57:40;;;;;;;4.47;2.90;;;19.90;73.40;;;;;;5059336;28;20538;-67
2021/08/19 06:00:06;;;;;;;5.50;3.35;;;20.00;73.70;;;;;;5072102;28;20074;-66
2021/08/19 06:02:32;;;;;;;5.45;3.47;;;20.10;73.50;;;;;;5062366;28;20108;-65
2021/08/19 06:04:59;;;;;;;6.90;3.65;;;20.30;73.40;;;;;;5050990;28;20132;-66
2021/08/19 06:07:25;;;;;;;6.03;3.40;;;20.50;73.30;;;;;;5051432;28;20028;-75
2021/08/19 06:09:51;;;;;;;7.10;5.10;;;20.60;72.80;;;;;;5051247;28;20025;-65
2021/08/19 06:12:16;;;;;;;7.70;5.53;;;20.70;70.90;;;;;;5050817;28;20067;-65
2021/08/19 06:14:42;;;;;;;7.35;5.35;;;20.50;71.00;;;;;;5050796;28;20044;-65
2021/08/19 06:17:08;;;;;;;8.52;5.75;;;20.30;71.60;;;;;;5050570;28;20496;-65
2021/08/19 06:19:33;;;;;;;8.75;6.22;;;20.10;72.20;;;;;;5050230;28;20125;-66
2021/08/19 06:21:59;;;;;;;8.40;6.15;;;20.00;72.60;;;;;;5051233;28;20437;-65
2021/08/19 06:24:25;;;;;;;8.00;6.15;;;19.90;73.10;;;;;;5051308;28;20021;-66
2021/08/19 06:26:51;;;;;;;7.65;5.97;;;19.80;74.00;;;;;;5051625;28;20444;-66
2021/08/19 06:29:16;;;;;;;8.98;6.43;;;19.80;73.70;;;;;;5051569;28;20056;-65
2021/08/19 06:31:42;;;;;;;8.15;5.93;;;19.70;73.40;;;;;;5051414;28;20106;-66
2021/08/19 06:34:08;;;;;;;8.25;6.15;;;19.70;73.00;;;;;;5051060;28;20025;-64
2021/08/19 06:36:34;;;;;;;8.32;6.07;;;19.80;72.90;;;;;;5051313;28;20029;-65
2021/08/19 06:39:00;;;;;;;10.15;6.55;;;19.70;73.00;;;;;;5051653;28;20132;-65
2021/08/19 06:41:27;;;;;;;8.77;6.40;;;19.60;72.50;;;;;;5051488;28;20021;-66
2021/08/19 06:43:53;;;;;;;7.68;5.65;;;19.50;72.50;;;;;;5051306;28;20452;-65
2021/08/19 06:46:19;;;;;;;8.93;5.47;;;19.40;72.90;;;;;;5054233;28;20029;-66
2021/08/19 06:48:45;;;;;;;9.57;5.95;;;19.30;73.30;;;;;;5054250;28;20051;-66
2021/08/19 06:51:10;;;;;;;8.73;6.10;;;19.30;73.10;;;;;;5055554;28;20049;-66
2021/08/19 06:53:36;;;;;;;9.05;5.85;;;19.30;72.90;;;;;;5054201;28;20067;-66
2021/08/19 06:56:03;;;;;;;8.07;5.90;;;19.30;72.80;;;;;;5055315;28;20032;-65
2021/08/19 06:58:29;;;;;;;8.80;6.20;;;19.20;72.90;;;;;;5055540;28;20021;-65
2021/08/19 07:00:56;;;;;;;7.97;5.75;;;19.10;73.10;;;;;;5054140;28;20025;-66
2021/08/19 07:03:22;;;;;;;8.52;5.70;;;19.00;73.30;;;;;;5055173;28;20021;-67
2021/08/19 07:05:48;;;;;;;8.43;5.70;;;18.90;73.40;;;;;;5054517;28;20079;-66
2021/08/19 07:08:15;;;;;;;7.32;5.13;;;18.80;73.50;;;;;;5053618;28;20029;-66
2021/08/19 07:10:41;;;;;;;7.68;5.40;;;18.70;73.80;;;;;;5055025;28;20107;-66
2021/08/19 07:13:07;;;;;;;7.43;5.25;;;18.70;74.20;;;;;;5055003;28;20082;-64
2021/08/19 07:15:32;;;;;;;7.28;5.60;;;18.60;73.90;;;;;;5053653;28;20040;-65
2021/08/19 07:17:58;;;;;;;8.48;6.40;;;18.60;74.00;;;;;;5054601;28;20021;-65
2021/08/19 07:20:24;;;;;;;7.80;5.90;;;18.50;74.40;;;;;;5053778;28;20021;-67
2021/08/19 07:22:49;;;;;;;9.40;6.40;;;18.50;74.90;;;;;;5054821;28;20021;-66
2021/08/19 07:25:16;;;;;;;8.45;6.05;;;18.40;75.10;;;;;;5053591;28;20078;-66
2021/08/19 07:27:43;;;;;;;8.85;6.43;;;18.30;75.30;;;;;;5054928;28;20040;-66
2021/08/19 07:30:10;;;;;;;8.48;6.00;;;18.30;75.60;;;;;;5054799;28;20392;-65
2021/08/19 07:32:36;;;;;;;8.55;5.63;;;18.20;75.90;;;;;;5054297;28;20044;-65
2021/08/19 07:35:03;;;;;;;9.18;6.15;;;18.10;76.10;;;;;;5054740;28;20017;-65
2021/08/19 07:37:28;;;;;;;8.70;6.47;;;18.10;76.50;;;;;;5054585;28;20056;-64
2021/08/19 07:39:54;;;;;;;8.32;6.10;;;18.00;76.50;;;;;;5055019;28;20109;-66
2021/08/19 07:42:20;;;;;;;8.93;5.70;;;17.90;76.50;;;;;;5054471;28;20036;-66
2021/08/19 07:44:45;;;;;;;8.00;5.55;;;17.90;76.50;;;;;;5054407;28;20025;-66
2021/08/19 07:47:11;;;;;;;7.75;5.15;;;17.90;76.70;;;;;;5054283;28;20044;-65
2021/08/19 07:49:37;;;;;;;7.60;5.40;;;18.00;76.70;;;;;;5055128;28;20344;-66
2021/08/19 07:52:03;;;;;;;8.63;5.47;;;18.10;76.70;;;;;;5072913;28;20503;-66
2021/08/19 07:54:28;;;;;;;8.48;5.25;;;18.10;76.50;;;;;;5061444;28;20065;-66
2021/08/19 07:56:54;;;;;;;8.38;5.65;;;18.30;76.90;;;;;;5052297;28;20460;-66
2021/08/19 07:59:20;;;;;;;7.75;5.32;;;18.40;75.70;;;;;;5054092;28;20021;-65
2021/08/19 08:01:45;;;;;;;7.80;5.22;;;18.40;75.40;;;;;;5053953;28;20518;-66
2021/08/19 08:04:11;;;;;;;8.52;5.22;;;18.40;75.20;;;;;;5053767;28;20025;-65
2021/08/19 08:06:38;;;;;;;7.03;4.82;;;18.40;75.30;;;;;;5053734;28;20491;-65
2021/08/19 08:09:04;;;;;;;7.65;5.00;;;18.40;75.30;;;;;;5053891;28;20021;-65
2021/08/19 08:11:30;;;;;;;6.43;4.80;;;18.40;75.40;;;;;;5053948;28;20460;-65
2021/08/19 08:13:56;;;;;;;7.10;4.93;;;18.40;75.40;;;;;;5053784;28;20193;-65
2021/08/19 08:16:22;;;;;;;7.25;5.05;;;18.40;75.60;;;;;;5054317;28;20471;-66
2021/08/19 08:18:48;;;;;;;7.00;4.95;;;18.50;75.70;;;;;;5053811;28;20029;-66
2021/08/19 08:21:14;;;;;;;7.60;4.93;;;18.60;75.80;;;;;;5053861;28;20375;-65
2021/08/19 08:23:41;;;;;;;8.10;5.90;;;18.70;75.70;;;;;;5053819;28;20083;-65
2021/08/19 08:26:07;;;;;;;7.00;5.25;;;18.80;75.50;;;;;;5052469;28;20067;-66
2021/08/19 08:28:36;;;;;;;6.68;4.70;;;18.80;75.40;;;;;;5053862;28;20024;-66
2021/08/19 08:31:02;;;;;;;7.10;4.75;;;18.90;74.70;;;;;;5053509;28;20021;-66
2021/08/19 08:33:30;;;;;;;6.25;4.70;;;19.00;74.70;;;;;;5053514;28;20074;-65
2021/08/19 08:35:56;;;;;;;7.60;4.55;;;19.00;74.20;;;;;;5053592;28;20460;-66
2021/08/19 08:38:24;;;;;;;6.43;4.38;;;19.00;73.90;;;;;;5053867;28;20108;-66
2021/08/19 08:40:51;;;;;;;5.88;4.28;;;19.00;73.40;;;;;;5053452;28;20020;-65
2021/08/19 08:43:20;;;;;;;7.25;4.32;;;18.90;73.50;;;;;;5053284;28;20031;-66
2021/08/19 08:45:48;;;;;;;6.28;4.20;;;18.90;73.70;;;;;;5052159;28;20372;-66
2021/08/19 08:48:22;;;;;;;5.85;4.13;;;18.90;73.40;;;;;;5053180;28;20476;-64
2021/08/19 08:50:49;;;;;;;6.68;4.40;;;18.80;73.40;;;;;;5053402;28;20057;-66
2021/08/19 08:53:16;;;;;;;7.68;4.63;;;18.80;73.20;;;;;;5052971;28;20037;-66
2021/08/19 08:55:42;;;;;;;5.93;4.07;;;18.80;73.70;;;;;;5052983;28;20029;-65
2021/08/19 08:58:09;;;;;;;6.03;3.95;;;18.70;73.70;;;;;;5052885;28;20021;-66
2021/08/19 09:00:35;;;;;;;5.25;3.58;;;18.70;74.10;;;;;;5053002;28;20074;-66
2021/08/19 09:03:01;;;;;;;6.68;3.67;;;18.70;74.00;;;;;;5053001;28;20021;-66
2021/08/19 09:05:29;;;;;;;5.55;3.25;;;18.70;74.40;;;;;;5052950;28;20025;-65
2021/08/19 09:07:56;;;;;;;5.15;3.28;;;18.70;74.40;;;;;;5052311;28;20017;-66
2021/08/19 09:10:33;;;;;;;7.07;4.40;;;18.70;75.30;;;;;;5052773;28;20032;-68
2021/08/19 09:13:05;;;;;;;6.00;4.10;;;18.70;75.20;;;;;;5051741;28;20036;-66
2021/08/19 09:15:31;;;;;;;6.15;4.18;;;18.70;75.50;;;;;;5053295;28;20155;-64
2021/08/19 09:17:59;;;;;;;6.60;4.50;;;18.60;75.90;;;;;;5052720;28;20481;-66
2021/08/19 09:20:36;;;;;;;7.10;4.65;;;18.50;76.30;;;;;;5052602;28;20025;-67
2021/08/19 09:23:15;;;;;;;6.80;4.70;;;18.30;77.10;;;;;;5051378;28;20108;-65
2021/08/19 09:25:42;;;;;;;7.43;4.00;;;18.20;77.40;;;;;;5052732;28;20088;-65
2021/08/19 09:28:25;;;;;;;6.55;4.50;;;18.10;77.80;;;;;;5051300;28;20532;-66
2021/08/19 09:31:03;;;;;;;7.85;5.35;;;18.00;78.60;;;;;;5052792;28;20787;-66
2021/08/19 09:33:37;;;;;;;8.00;5.72;;;18.00;79.40;;;;;;5032145;28;20026;-66
2021/08/19 09:36:08;;;;;;;8.15;5.82;;;18.00;80.00;;;;;;5032312;28;20024;-66
2021/08/19 09:38:44;;;;;;;7.13;5.35;;;18.00;80.30;;;;;;5032590;28;20040;-66
2021/08/19 09:41:17;;;;;;;7.85;5.63;;;18.00;80.60;;;;;;5032319;28;20021;-66
2021/08/19 09:43:50;;;;;;;6.85;4.80;;;18.00;81.00;;;;;;5032281;28;20017;-66
2021/08/19 09:46:34;;;;;;;8.35;5.43;;;18.00;80.90;;;;;;5032493;28;20101;-67
2021/08/19 09:49:01;;;;;;;6.95;5.13;;;18.00;80.70;;;;;;5031749;28;20412;-66
2021/08/19 09:51:27;;;;;;;7.50;5.50;;;18.10;80.60;;;;;;5031870;28;20515;-66
2021/08/19 09:53:54;;;;;;;7.80;5.65;;;18.10;80.70;;;;;;5031933;28;20050;-66
2021/08/19 09:56:31;;;;;;;8.07;5.40;;;18.10;80.80;;;;;;5032165;28;20025;-66
2021/08/19 09:59:23;;;;;;;7.60;5.60;;;18.10;81.00;;;;;;5031942;28;20048;-66
2021/08/19 10:01:51;;;;;;;6.78;4.95;;;18.20;80.90;;;;;;5030712;28;20017;-67
2021/08/19 10:04:18;;;;;;;6.40;4.47;;;18.30;81.20;;;;;;5031886;28;20582;-66
2021/08/19 10:06:44;;;;;;;6.05;4.47;;;18.40;81.20;;;;;;5031807;28;20044;-66
2021/08/19 10:09:11;;;;;;;6.55;4.72;;;18.70;81.00;;;;;;5031888;28;20026;-65
2021/08/19 10:11:41;;;;;;;9.05;5.00;;;18.80;80.60;;;;;;5031769;28;20036;-65
2021/08/19 10:14:07;;;;;;;8.77;4.82;;;19.00;79.70;;;;;;5031548;28;20037;-67
2021/08/19 10:16:35;;;;;;;7.75;5.90;;;19.10;79.40;;;;;;5031564;28;20021;-65
2021/08/19 10:19:08;;;;;;;6.80;5.20;;;19.20;78.80;;;;;;5031415;28;20519;-65
2021/08/19 10:21:35;;;;;;;;;;;19.20;78.60;;;;;;5032077;28;20060;-65
2021/08/19 10:24:03;;;;;;;7.80;5.30;;;19.20;78.70;;;;;;5031134;28;19905;-66
2021/08/19 10:26:28;;;;;;;7.05;5.75;;;19.20;78.40;;;;;;5031360;28;20033;-65
2021/08/19 10:28:59;;;;;;;9.07;5.45;;;19.20;78.20;;;;;;5030434;28;20473;-65
2021/08/19 10:31:39;;;;;;;7.22;5.13;;;19.30;77.90;;;;;;5033875;28;20429;-66
2021/08/19 10:34:06;;;;;;;7.40;5.05;;;19.20;77.60;;;;;;5051282;28;20510;-66
2021/08/19 10:36:38;;;;;;;8.00;5.30;;;19.20;77.30;;;;;;5051224;28;20021;-64
2021/08/19 10:39:19;;;;;;;8.33;6.00;;;19.20;77.40;;;;;;5051228;28;20025;-65
2021/08/19 10:41:52;;;;;;;7.60;5.35;;;19.30;77.60;;;;;;5051286;28;20013;-65
2021/08/19 10:44:26;;;;;;;7.25;5.25;;;19.30;77.60;;;;;;5051041;28;20380;-66
2021/08/19 10:46:54;;;;;;;8.20;5.13;;;19.30;77.40;;;;;;5051100;28;20021;-65
2021/08/19 10:49:31;;;;;;;6.55;4.75;;;19.30;77.20;;;;;;5051099;28;20025;-65
2021/08/19 10:52:09;;;;;;;7.07;4.80;;;19.30;76.90;;;;;;5051451;28;20041;-65
2021/08/19 10:54:40;;;;;;;6.57;4.82;;;19.30;77.10;;;;;;5050473;28;20040;-66
2021/08/19 10:57:24;;;;;;;7.70;5.60;;;19.30;77.10;;;;;;5051049;28;20024;-66
2021/08/19 10:59:58;;;;;;;6.75;4.93;;;19.30;77.00;;;;;;5051019;28;20021;-65
2021/08/19 11:02:44;;;;;;;7.18;5.07;;;19.30;77.10;;;;;;5051087;28;20108;-65
2021/08/19 11:05:13;;;;;;;7.85;4.90;;;19.30;77.30;;;;;;5050918;28;20032;-65
2021/08/19 11:07:48;;;;;;;7.60;5.15;;;19.40;77.40;;;;;;5050823;28;20025;-66
2021/08/19 11:10:35;;;;;;;7.15;4.72;;;19.40;77.30;;;;;;5050837;28;20021;-65
2021/08/19 11:13:05;;;;;;;7.32;4.80;;;19.40;77.10;;;;;;5050936;28;20025;-66
2021/08/19 11:15:36;;;;;;;7.55;4.78;;;19.40;76.80;;;;;;5050645;28;20021;-65
2021/08/19 11:18:02;;;;;;;6.22;4.40;;;19.40;76.40;;;;;;5050744;28;20025;-65
2021/08/19 11:20:35;;;;;;;7.60;4.70;;;19.40;76.50;;;;;;5050727;28;20026;-64
2021/08/19 11:23:11;;;;;;;6.90;4.90;;;19.40;76.50;;;;;;5050691;28;20024;-64
2021/08/19 11:25:42;;;;;;;7.10;4.90;;;19.30;76.30;;;;;;5049372;28;20025;-65
2021/08/19 11:28:08;;;;;;;7.55;5.28;;;19.30;76.50;;;;;;5050638;28;20072;-65
2021/08/19 11:30:39;;;;;;;8.15;6.07;;;19.30;76.80;;;;;;5050788;28;20053;-64
2021/08/19 11:33:12;;;;;;;8.40;6.07;;;19.20;77.10;;;;;;5054217;28;20028;-65
2021/08/19 11:35:39;;;;;;;7.47;5.75;;;19.10;77.40;;;;;;5053932;28;20047;-65
2021/08/19 11:38:15;;;;;;;8.55;5.80;;;19.10;77.80;;;;;;5054202;28;20013;-65
2021/08/19 11:40:44;;;;;;;7.65;5.45;;;19.00;78.10;;;;;;5054468;28;20078;-65
2021/08/19 11:43:33;;;;;;;6.93;4.20;;;19.00;78.30;;;;;;5054443;28;20029;-64
2021/08/19 11:46:05;;;;;;;6.72;4.40;;;19.00;78.40;;;;;;5054493;28;20021;-66
2021/08/19 11:48:32;;;;;;;7.00;5.00;;;19.00;78.70;;;;;;5054614;28;20041;-66
2021/08/19 11:51:00;;;;;;;7.95;5.72;;;18.90;79.20;;;;;;5054694;28;20029;-66
2021/08/19 11:53:26;;;;;;;7.18;4.72;;;18.90;79.50;;;;;;5054066;28;20039;-66
2021/08/19 11:55:53;;;;;;;7.85;5.90;;;18.90;79.80;;;;;;5054188;28;20025;-66
2021/08/19 11:58:26;;;;;;;7.28;5.40;;;19.00;80.40;;;;;;5054111;28;20110;-66
2021/08/19 12:00:59;;;;;;;6.80;5.47;;;19.10;80.30;;;;;;5054253;28;20555;-67
2021/08/19 12:03:25;;;;;;;7.30;5.07;;;19.30;80.30;;;;;;5053722;28;20035;-67
2021/08/19 12:06:03;;;;;;;7.90;5.20;;;19.40;80.00;;;;;;5054242;28;20025;-67
2021/08/19 12:08:29;;;;;;;6.63;5.22;;;19.70;79.80;;;;;;5054125;28;20074;-67
2021/08/19 12:10:57;;;;;;;7.25;5.40;;;20.00;79.10;;;;;;5054027;28;20487;-67
2021/08/19 12:13:23;;;;;;;6.60;5.15;;;20.40;78.70;;;;;;5052597;28;20032;-65
2021/08/19 12:15:49;;;;;;;6.40;4.50;;;21.10;78.10;;;;;;5053824;28;20021;-66
2021/08/19 12:18:21;;;;;;;7.15;4.55;;;22.10;77.40;;;;;;5053825;28;20033;-67
2021/08/19 12:20:48;;;;;;;5.85;4.35;;;23.20;73.80;;;;;;5053792;28;20049;-66
2021/08/19 12:23:22;;;;;;;6.75;4.20;;;24.50;71.60;;;;;;5053752;28;20157;-66
2021/08/19 12:25:49;;;;;;;5.38;3.63;;;25.30;66.90;;;;;;5053575;28;20017;-65
2021/08/19 12:28:18;;;;;;;5.40;3.20;;;26.20;65.80;;;;;;5053615;28;20198;-66
2021/08/19 12:31:02;;;;;;;5.28;3.10;;;27.00;64.50;;;;;;5053969;28;20032;-67
2021/08/19 12:33:32;;;;;;;5.18;2.90;;;27.90;62.40;;;;;;5053380;28;20021;-66
2021/08/19 12:36:15;;;;;;;5.13;2.72;;;28.70;60.80;;;;;;5053404;28;20033;-66
2021/08/19 12:38:43;;;;;;;5.20;3.10;;;29.00;57.40;;;;;;5053216;28;20464;-66
2021/08/19 12:41:20;;;;;;;4.78;3.13;;;29.10;57.60;;;;;;5053265;28;20025;-66
2021/08/19 12:44:04;;;;;;;5.10;3.25;;;28.90;54.00;;;;;;5052128;28;20029;-65
2021/08/19 12:46:37;;;;;;;4.97;2.90;;;28.40;54.80;;;;;;5053431;28;20123;-64
2021/08/19 12:49:25;;;;;;;5.32;3.72;;;27.80;55.60;;;;;;5052917;28;20079;-66
2021/08/19 12:52:15;;;;;;;5.85;3.92;;;27.10;55.30;;;;;;5053084;28;20057;-66